createdAt,value
2022-08-04T00:00:28.784Z,9.18
2022-08-04T00:03:12.826Z,8.80
2022-08-04T00:05:49.234Z,6.50
2022-08-04T00:08:20.775Z,8.95
2022-08-04T00:10:50.383Z,12.13
2022-08-04T00:13:23.363Z,9.07
2022-08-04T00:15:52.640Z,9.52
2022-08-04T00:18:21.613Z,7.32
2022-08-04T00:20:49.699Z,9.88
2022-08-04T00:23:18.023Z,8.18
2022-08-04T00:25:45.736Z,8.02
2022-08-04T00:28:14.003Z,10.60
2022-08-04T00:30:43.831Z,7.22
2022-08-04T00:33:11.717Z,8.65
2022-08-04T00:35:40.065Z,9.07
2022-08-04T00:38:09.616Z,8.05
2022-08-04T00:40:42.664Z,11.75
2022-08-04T00:43:13.824Z,9.10
2022-08-04T00:46:14.944Z,9.35
2022-08-04T00:49:02.112Z,6.95
2022-08-04T00:51:35.083Z,7.88
2022-08-04T00:54:07.835Z,4.90
2022-08-04T00:57:09.424Z,8.63
2022-08-04T01:00:05.183Z,7.13
2022-08-04T01:02:37.184Z,7.22
2022-08-04T01:05:06.866Z,8.73
2022-08-04T01:07:55.359Z,6.93
2022-08-04T01:10:25.361Z,9.65
2022-08-04T01:12:57.357Z,4.95
2022-08-04T01:15:31.368Z,7.38
2022-08-04T01:18:23.073Z,8.23
2022-08-04T01:20:56.430Z,8.15
2022-08-04T01:23:51.146Z,5.40
2022-08-04T01:26:43.383Z,7.85
2022-08-04T01:29:24.616Z,6.63
2022-08-04T01:32:03.274Z,7.43
2022-08-04T01:34:32.231Z,10.25
2022-08-04T01:37:01.578Z,6.53
2022-08-04T01:39:43.037Z,8.70
2022-08-04T01:42:12.672Z,6.43
2022-08-04T01:45:01.576Z,10.02
2022-08-04T01:47:30.504Z,7.70
2022-08-04T01:50:03.148Z,8.75
2022-08-04T01:52:32.670Z,5.20
2022-08-04T01:55:01.702Z,8.63
2022-08-04T01:57:38.122Z,8.65
2022-08-04T02:00:09.701Z,7.40
2022-08-04T02:02:37.457Z,9.77
2022-08-04T02:05:05.291Z,11.55
2022-08-04T02:07:41.384Z,10.38
2022-08-04T02:10:10.412Z,12.95
2022-08-04T02:12:45.772Z,7.07
2022-08-04T02:15:16.754Z,11.73
2022-08-04T02:17:47.420Z,13.20
2022-08-04T02:20:20.383Z,7.97
2022-08-04T02:22:51.809Z,6.55
2022-08-04T02:25:23.245Z,8.52
2022-08-04T02:27:59.307Z,7.10
2022-08-04T02:30:32.094Z,7.18
2022-08-04T02:33:03.138Z,8.77
2022-08-04T02:35:33.694Z,10.75
2022-08-04T02:38:05.828Z,5.93
2022-08-04T02:40:33.908Z,7.25
2022-08-04T02:43:05.029Z,10.93
2022-08-04T02:45:36.954Z,8.63
2022-08-04T02:48:29.528Z,8.65
2022-08-04T02:50:54.471Z,6.00
2022-08-04T02:53:23.484Z,6.60
2022-08-04T02:55:53.301Z,8.55
2022-08-04T02:58:25.006Z,9.27
2022-08-04T03:00:54.075Z,8.57
2022-08-04T03:03:24.983Z,7.78
2022-08-04T03:06:10.143Z,7.38
2022-08-04T03:11:21.737Z,7.70
2022-08-04T03:13:59.546Z,9.60
2022-08-04T03:16:38.915Z,7.80
2022-08-04T03:19:21.589Z,7.40
2022-08-04T03:22:02.258Z,9.85
2022-08-04T03:24:48.331Z,11.50
2022-08-04T03:27:34.055Z,7.78
2022-08-04T03:30:06.522Z,7.35
2022-08-04T03:32:49.638Z,10.68
2022-08-04T03:35:34.088Z,9.30
2022-08-04T03:38:07.864Z,7.35
2022-08-04T03:40:47.278Z,10.65
2022-08-04T03:43:57.545Z,12.25
2022-08-04T03:46:27.637Z,10.27
2022-08-04T03:49:11.340Z,9.63
2022-08-04T03:52:01.393Z,11.07
2022-08-04T03:54:46.761Z,10.25
2022-08-04T03:57:24.250Z,9.93
2022-08-04T04:00:01.842Z,8.50
2022-08-04T04:02:42.191Z,12.80
2022-08-04T04:05:35.473Z,11.27
2022-08-04T04:08:42.621Z,11.23
2022-08-04T04:11:30.393Z,9.15
2022-08-04T04:14:10.467Z,14.30
2022-08-04T04:16:39.550Z,11.52
2022-08-04T04:19:18.406Z,11.48
2022-08-04T04:22:09.911Z,8.77
2022-08-04T04:24:55.905Z,9.85
2022-08-04T04:27:31.417Z,12.50
2022-08-04T04:30:06.222Z,10.88
2022-08-04T04:32:37.250Z,9.88
2022-08-04T04:35:12.217Z,9.98
2022-08-04T04:37:53.119Z,9.85
2022-08-04T04:40:28.943Z,9.25
2022-08-04T04:43:06.186Z,10.88
2022-08-04T04:45:37.404Z,15.43
2022-08-04T04:48:10.627Z,13.05
2022-08-04T04:50:48.499Z,9.65
2022-08-04T04:53:19.174Z,8.85
2022-08-04T04:55:48.911Z,12.18
2022-08-04T04:58:18.365Z,12.43
2022-08-04T05:00:53.622Z,12.10
2022-08-04T05:03:42.082Z,11.27
2022-08-04T05:06:16.182Z,13.18
2022-08-04T05:08:50.042Z,14.50
2022-08-04T05:11:42.188Z,14.52
2022-08-04T05:14:36.435Z,16.55
2022-08-04T05:17:04.133Z,11.05
2022-08-04T05:19:35.438Z,10.57
2022-08-04T05:22:05.333Z,11.63
2022-08-04T05:24:36.212Z,15.60
2022-08-04T05:27:06.694Z,11.45
2022-08-04T05:29:36.253Z,13.20
2022-08-04T05:32:08.448Z,11.35
2022-08-04T05:34:38.349Z,11.38
2022-08-04T05:37:09.618Z,10.57
2022-08-04T05:39:40.169Z,17.23
2022-08-04T05:42:08.645Z,14.05
2022-08-04T05:44:36.769Z,14.10
2022-08-04T05:47:06.216Z,9.65
2022-08-04T05:49:34.345Z,12.05
2022-08-04T05:52:04.641Z,10.38
2022-08-04T05:54:33.201Z,11.63
2022-08-04T05:57:01.265Z,9.98
2022-08-04T05:59:30.397Z,12.20
2022-08-04T06:01:59.032Z,14.30
2022-08-04T06:04:32.199Z,10.23
2022-08-04T06:06:59.845Z,11.95
2022-08-04T06:09:28.690Z,9.80
2022-08-04T06:12:03.145Z,12.70
2022-08-04T06:14:33.755Z,11.68
2022-08-04T06:17:03.355Z,12.02
2022-08-04T06:20:03.891Z,12.95
2022-08-04T06:22:21.568Z,12.27
2022-08-04T06:24:53.451Z,15.32
2022-08-04T06:27:21.302Z,16.80
2022-08-04T06:29:51.774Z,15.65
2022-08-04T06:32:33.608Z,14.43
2022-08-04T06:35:06.621Z,12.83
2022-08-04T06:37:42.130Z,13.50
2022-08-04T06:40:30.759Z,15.55
2022-08-04T06:43:00.698Z,18.70
2022-08-04T06:45:28.931Z,17.33
2022-08-04T06:47:59.329Z,17.73
2022-08-04T06:51:28.110Z,22.20
2022-08-04T06:53:18.484Z,19.48
2022-08-04T06:55:47.181Z,19.73
2022-08-04T06:58:15.972Z,23.52
2022-08-04T07:00:45.050Z,29.60
2022-08-04T07:03:13.169Z,29.48
2022-08-04T07:05:42.806Z,32.28
2022-08-04T07:08:11.357Z,37.70
2022-08-04T07:10:39.383Z,34.55
2022-08-04T07:13:09.496Z,34.78
2022-08-04T07:15:37.929Z,42.50
2022-08-04T07:18:05.720Z,37.03
2022-08-04T07:20:35.759Z,41.65
2022-08-04T07:23:06.654Z,43.28
2022-08-04T07:26:00.877Z,40.80
2022-08-04T07:28:23.261Z,40.13
2022-08-04T07:30:51.055Z,36.13
2022-08-04T07:33:19.265Z,34.30
2022-08-04T07:36:04.480Z,39.65
2022-08-04T07:38:37.705Z,31.63
2022-08-04T07:44:03.009Z,32.33
2022-08-04T07:46:31.265Z,27.17
2022-08-04T07:49:00.819Z,27.33
2022-08-04T07:51:28.895Z,28.33
2022-08-04T07:53:58.514Z,28.70
2022-08-04T07:56:26.993Z,33.05
2022-08-04T07:58:55.174Z,38.00
2022-08-04T08:01:23.032Z,28.73
2022-08-04T08:03:51.016Z,31.63
2022-08-04T08:06:32.769Z,32.63
2022-08-04T08:09:13.592Z,30.95
2022-08-04T08:12:35.252Z,36.70
2022-08-04T08:14:30.828Z,35.75
2022-08-04T08:17:00.015Z,40.90
2022-08-04T08:19:27.718Z,30.77
2022-08-04T08:21:59.193Z,34.67
2022-08-04T08:24:29.602Z,40.33
2022-08-04T08:26:57.935Z,31.90
2022-08-04T08:29:26.922Z,37.63
2022-08-04T08:31:58.637Z,36.70
2022-08-04T08:34:29.047Z,36.28
2022-08-04T08:37:00.319Z,39.70
2022-08-04T08:39:34.649Z,36.78
2022-08-04T08:42:16.469Z,39.25
2022-08-04T08:45:12.515Z,40.50
2022-08-04T08:48:06.240Z,36.03
2022-08-04T08:50:43.531Z,43.28
2022-08-04T08:53:18.325Z,34.88
2022-08-04T08:55:55.206Z,38.28
2022-08-04T08:58:45.343Z,30.52
2022-08-04T09:01:18.264Z,33.45
2022-08-04T09:04:00.785Z,34.97
2022-08-04T09:06:48.804Z,28.00
2022-08-04T09:09:46.437Z,28.95
2022-08-04T09:12:19.167Z,34.13
2022-08-04T09:14:55.498Z,29.90
2022-08-04T09:17:25.338Z,25.58
2022-08-04T09:19:57.409Z,22.30
2022-08-04T09:22:29.423Z,23.23
2022-08-04T09:25:01.459Z,24.75
2022-08-04T09:27:32.429Z,24.13
2022-08-04T09:30:06.187Z,24.17
2022-08-04T09:32:36.227Z,21.63
2022-08-04T09:35:12.060Z,22.90
2022-08-04T09:37:46.666Z,20.75
2022-08-04T09:40:31.471Z,21.55
2022-08-04T09:43:14.966Z,18.70
2022-08-04T09:45:47.350Z,19.05
2022-08-04T09:48:18.601Z,18.40
2022-08-04T09:50:50.345Z,17.13
2022-08-04T09:53:25.847Z,19.63
2022-08-04T09:56:03.061Z,16.05
2022-08-04T09:58:41.691Z,19.05
2022-08-04T10:01:11.317Z,18.63
2022-08-04T10:03:41.654Z,17.23
2022-08-04T10:06:15.193Z,14.23
2022-08-04T10:08:57.022Z,15.82
2022-08-04T10:11:34.336Z,14.77
2022-08-04T10:14:31.645Z,15.27
2022-08-04T10:17:03.181Z,15.23
2022-08-04T10:19:33.662Z,16.92
2022-08-04T10:22:30.043Z,14.85
2022-08-04T10:24:58.783Z,16.10
2022-08-04T10:27:31.399Z,19.25
2022-08-04T10:30:10.288Z,16.30
2022-08-04T10:32:46.686Z,18.05
2022-08-04T10:35:15.120Z,20.08
2022-08-04T10:37:59.409Z,20.67
2022-08-04T10:40:39.842Z,15.27
2022-08-04T10:43:22.192Z,14.63
2022-08-04T10:45:56.083Z,14.95
2022-08-04T10:48:34.697Z,14.57
2022-08-04T10:51:07.187Z,13.52
2022-08-04T10:53:36.085Z,19.23
2022-08-04T10:56:08.692Z,15.55
2022-08-04T10:58:47.698Z,15.82
2022-08-04T11:02:01.692Z,17.52
2022-08-04T11:04:13.248Z,14.00
2022-08-04T11:06:41.390Z,12.13
2022-08-04T11:09:13.963Z,13.82
2022-08-04T11:12:00.419Z,12.85
2022-08-04T11:14:32.532Z,14.80
2022-08-04T11:17:02.909Z,12.43
2022-08-04T11:19:45.391Z,13.43
2022-08-04T11:22:16.518Z,14.68
2022-08-04T11:24:46.507Z,18.63
2022-08-04T11:27:16.006Z,14.02
2022-08-04T11:29:50.656Z,11.73
2022-08-04T11:34:52.784Z,18.92
2022-08-04T11:37:24.503Z,12.88
2022-08-04T11:39:53.860Z,11.85
2022-08-04T11:42:22.915Z,13.23
2022-08-04T11:44:52.449Z,14.38
2022-08-04T11:47:23.337Z,15.27
2022-08-04T11:49:57.425Z,14.07
2022-08-04T11:52:26.166Z,9.20
2022-08-04T11:54:55.124Z,12.52
2022-08-04T11:57:36.192Z,11.48
2022-08-04T12:00:07.880Z,10.52
2022-08-04T12:02:53.328Z,10.88
2022-08-04T12:05:35.701Z,11.70
2022-08-04T12:08:21.713Z,11.10
2022-08-04T12:10:53.908Z,10.10
2022-08-04T12:13:29.494Z,9.48
2022-08-04T12:16:11.752Z,11.57
2022-08-04T12:18:41.409Z,12.35
2022-08-04T12:21:15.089Z,9.98
2022-08-04T12:23:44.088Z,8.23
2022-08-04T12:26:27.104Z,9.95
2022-08-04T12:29:14.575Z,11.85
2022-08-04T12:31:46.291Z,14.35
2022-08-04T12:34:16.026Z,12.73
2022-08-04T12:36:48.040Z,14.20
2022-08-04T12:39:18.050Z,12.63
2022-08-04T12:41:49.059Z,13.88
2022-08-04T12:44:36.219Z,9.57
2022-08-04T12:47:27.842Z,11.40
2022-08-04T12:50:01.005Z,9.60
2022-08-04T12:52:58.957Z,6.70
2022-08-04T12:55:21.430Z,7.70
2022-08-04T12:57:50.678Z,9.32
2022-08-04T13:00:30.476Z,15.55
2022-08-04T13:03:09.809Z,8.02
2022-08-04T13:05:38.452Z,9.27
2022-08-04T13:08:07.504Z,8.93
2022-08-04T13:10:40.582Z,9.52
2022-08-04T13:13:13.150Z,7.25
2022-08-04T13:15:47.479Z,8.75
2022-08-04T13:18:29.325Z,6.20
2022-08-04T13:20:58.347Z,8.18
2022-08-04T13:23:28.652Z,6.03
2022-08-04T13:26:43.615Z,6.72
2022-08-04T13:29:16.768Z,6.93
2022-08-04T13:31:52.851Z,8.18
2022-08-04T13:34:21.572Z,9.25
2022-08-04T13:36:50.323Z,8.25
2022-08-04T13:39:20.914Z,13.68
2022-08-04T13:41:57.957Z,10.07
2022-08-04T13:44:29.019Z,10.75
2022-08-04T13:46:57.724Z,8.95
2022-08-04T13:49:53.977Z,8.75
2022-08-04T13:52:17.587Z,7.93
2022-08-04T13:54:48.081Z,5.40
2022-08-04T13:57:24.458Z,9.10
2022-08-04T13:59:53.222Z,6.38
2022-08-04T14:02:26.671Z,6.90
2022-08-04T14:04:57.246Z,7.15
2022-08-04T14:07:26.229Z,5.90
2022-08-04T14:10:02.625Z,5.38
2022-08-04T14:12:45.526Z,6.45
2022-08-04T14:16:01.561Z,3.80
2022-08-04T14:18:22.494Z,8.60
2022-08-04T14:21:00.298Z,5.45
2022-08-04T14:23:33.302Z,7.25
2022-08-04T14:26:14.137Z,10.90
2022-08-04T14:29:09.678Z,6.57
2022-08-04T14:31:31.116Z,8.07
2022-08-04T14:34:02.118Z,8.20
2022-08-04T14:36:49.631Z,6.13
2022-08-04T14:39:40.383Z,9.27
2022-08-04T14:42:09.744Z,8.10
2022-08-04T14:44:53.585Z,8.88
2022-08-04T14:47:29.538Z,7.60
2022-08-04T14:49:57.127Z,5.13
2022-08-04T14:52:25.466Z,5.18
2022-08-04T14:54:53.805Z,3.80
2022-08-04T14:57:23.481Z,7.18
2022-08-04T15:00:00.772Z,3.28
2022-08-04T15:02:30.735Z,5.90
2022-08-04T15:04:58.696Z,7.47
2022-08-04T15:07:27.069Z,4.10
2022-08-04T15:09:55.180Z,6.13
2022-08-04T15:12:24.466Z,8.32
2022-08-04T15:14:52.620Z,10.23
2022-08-04T15:17:29.893Z,4.93
2022-08-04T15:19:58.448Z,6.85
2022-08-04T15:22:26.289Z,4.68
2022-08-04T15:24:54.852Z,4.93
2022-08-04T15:27:26.624Z,5.90
2022-08-04T15:29:59.802Z,7.68
2022-08-04T15:32:29.659Z,7.70
2022-08-04T15:35:02.667Z,3.97
2022-08-04T15:37:32.625Z,5.00
2022-08-04T15:40:01.948Z,6.22
2022-08-04T15:42:35.178Z,5.03
2022-08-04T15:45:13.590Z,5.82
2022-08-04T15:47:41.275Z,5.95
2022-08-04T15:50:10.107Z,5.75
2022-08-04T15:53:00.709Z,9.95
2022-08-04T15:55:38.125Z,4.82
2022-08-04T15:58:08.427Z,5.68
2022-08-04T16:00:59.743Z,3.55
2022-08-04T16:04:00.518Z,5.28
2022-08-04T16:06:53.086Z,6.22
2022-08-04T16:09:45.700Z,4.75
2022-08-04T16:12:53.205Z,3.83
2022-08-04T16:15:42.241Z,4.82
2022-08-04T16:18:25.614Z,8.05
2022-08-04T16:20:55.367Z,6.53
2022-08-04T16:23:54.974Z,4.35
2022-08-04T16:26:45.546Z,5.70
2022-08-04T16:29:34.570Z,3.38
2022-08-04T16:32:13.916Z,4.82
2022-08-04T16:34:53.685Z,5.47
2022-08-04T16:37:24.369Z,5.07
2022-08-04T16:40:12.035Z,5.63
2022-08-04T16:42:39.808Z,4.15
2022-08-04T16:45:14.371Z,5.30
2022-08-04T16:47:59.686Z,7.65
2022-08-04T16:50:29.780Z,4.05
2022-08-04T16:52:57.493Z,6.53
2022-08-04T16:55:28.489Z,8.77
2022-08-04T16:57:57.468Z,5.93
2022-08-04T17:00:32.597Z,6.35
2022-08-04T17:03:03.457Z,6.32
2022-08-04T17:05:39.416Z,5.35
2022-08-04T17:08:28.997Z,7.55
2022-08-04T17:11:01.901Z,5.57
2022-08-04T17:14:02.889Z,6.00
2022-08-04T17:16:22.563Z,6.35
2022-08-04T17:18:51.258Z,5.80
2022-08-04T17:21:22.228Z,11.27
2022-08-04T17:24:16.448Z,6.28
2022-08-04T17:26:41.477Z,8.25
2022-08-04T17:29:09.620Z,4.25
2022-08-04T17:31:39.885Z,11.77
2022-08-04T17:34:16.680Z,5.97
2022-08-04T17:36:48.845Z,4.53
2022-08-04T17:39:20.029Z,4.47
2022-08-04T17:41:49.755Z,7.07
2022-08-04T17:44:18.007Z,6.85
2022-08-04T17:46:48.176Z,7.47
2022-08-04T17:49:25.486Z,7.63
2022-08-04T17:52:06.373Z,5.80
2022-08-04T17:54:39.907Z,7.80
2022-08-04T17:57:15.136Z,5.00
2022-08-04T18:02:33.137Z,5.20
2022-08-04T18:05:05.788Z,6.93
2022-08-04T18:08:40.153Z,5.82
2022-08-04T18:10:43.206Z,7.93
2022-08-04T18:13:23.123Z,3.58
2022-08-04T18:15:51.186Z,4.78
2022-08-04T18:18:23.045Z,6.55
2022-08-04T18:20:51.768Z,7.32
2022-08-04T18:23:31.542Z,5.68
2022-08-04T18:26:01.836Z,5.75
2022-08-04T18:28:30.682Z,4.40
2022-08-04T18:30:58.635Z,7.00
2022-08-04T18:33:40.841Z,7.72
2022-08-04T18:36:34.878Z,5.07
2022-08-04T18:39:12.426Z,5.30
2022-08-04T18:42:02.085Z,5.88
2022-08-04T18:44:29.442Z,4.50
2022-08-04T18:47:18.943Z,6.53
2022-08-04T18:51:00.289Z,6.55
2022-08-04T18:52:34.234Z,5.18
2022-08-04T18:55:03.597Z,8.25
2022-08-04T18:57:59.060Z,5.03
2022-08-04T19:00:20.090Z,3.78
2022-08-04T19:02:48.039Z,6.32
2022-08-04T19:05:17.523Z,6.05
2022-08-04T19:10:35.911Z,3.38
2022-08-04T19:13:04.142Z,6.10
2022-08-04T19:15:51.764Z,7.28
2022-08-04T19:18:19.403Z,4.57
2022-08-04T19:20:48.979Z,5.95
2022-08-04T19:24:27.130Z,6.05
2022-08-04T19:26:10.074Z,4.30
2022-08-04T19:28:47.423Z,6.55
2022-08-04T19:31:17.256Z,4.10
2022-08-04T19:33:58.049Z,5.82
2022-08-04T19:36:31.046Z,5.72
2022-08-04T19:38:59.203Z,4.15
2022-08-04T19:41:31.159Z,4.75
2022-08-04T19:43:58.962Z,5.18
2022-08-04T19:46:28.628Z,3.88
2022-08-04T19:48:59.457Z,6.10
2022-08-04T19:51:28.240Z,4.75
2022-08-04T19:54:04.113Z,2.60
2022-08-04T19:56:40.543Z,6.35
2022-08-04T19:59:09.408Z,4.40
2022-08-04T20:01:44.108Z,7.30
2022-08-04T20:04:16.583Z,4.93
2022-08-04T20:06:44.280Z,3.17
2022-08-04T20:09:25.123Z,7.43
2022-08-04T20:11:55.502Z,3.67
2022-08-04T20:14:32.388Z,3.15
2022-08-04T20:17:00.992Z,4.82
2022-08-04T20:19:30.385Z,4.88
2022-08-04T20:21:58.425Z,3.30
2022-08-04T20:24:39.033Z,6.25
2022-08-04T20:27:15.407Z,7.05
2022-08-04T20:29:48.633Z,4.68
2022-08-04T20:32:19.211Z,4.40
2022-08-04T20:34:47.602Z,5.88
2022-08-04T20:37:16.076Z,4.75
2022-08-04T20:39:43.882Z,5.45
2022-08-04T20:42:13.181Z,4.35
2022-08-04T20:44:42.145Z,4.68
2022-08-04T20:47:14.165Z,4.72
2022-08-04T20:49:42.654Z,5.05
2022-08-04T20:52:16.369Z,5.13
2022-08-04T20:54:49.241Z,4.03
2022-08-04T20:57:47.452Z,4.22
2022-08-04T21:00:13.562Z,5.07
2022-08-04T21:02:41.546Z,5.80
2022-08-04T21:05:12.238Z,5.55
2022-08-04T21:07:41.616Z,3.10
2022-08-04T21:10:11.396Z,10.95
2022-08-04T21:12:40.474Z,8.48
2022-08-04T21:15:14.516Z,4.38
2022-08-04T21:17:58.079Z,4.63
2022-08-04T21:20:33.292Z,4.65
2022-08-04T21:23:03.635Z,5.80
2022-08-04T21:25:42.907Z,4.63
2022-08-04T21:28:20.140Z,9.15
2022-08-04T21:30:53.977Z,3.97
2022-08-04T21:33:23.583Z,6.43
2022-08-04T21:35:54.161Z,7.80
2022-08-04T21:38:28.057Z,7.45
2022-08-04T21:40:56.853Z,5.03
2022-08-04T21:43:27.181Z,6.30
2022-08-04T21:45:55.754Z,6.53
2022-08-04T21:48:27.308Z,5.65
2022-08-04T21:50:55.852Z,6.40
2022-08-04T21:53:27.704Z,5.85
2022-08-04T21:56:05.070Z,4.28
2022-08-04T21:58:36.883Z,16.23
2022-08-04T22:01:12.753Z,7.03
2022-08-04T22:03:53.529Z,7.32
2022-08-04T22:06:28.232Z,4.18
2022-08-04T22:08:57.319Z,10.40
2022-08-04T22:11:48.726Z,3.53
2022-08-04T22:14:29.201Z,5.60
2022-08-04T22:17:01.480Z,7.18
2022-08-04T22:19:49.749Z,6.35
2022-08-04T22:22:25.412Z,5.35
2022-08-04T22:24:54.797Z,5.63
2022-08-04T22:27:36.364Z,5.43
2022-08-04T22:30:13.442Z,4.38
2022-08-04T22:32:45.543Z,7.35
2022-08-04T22:35:42.771Z,3.78
2022-08-04T22:38:07.876Z,5.10
2022-08-04T22:40:50.065Z,6.68
2022-08-04T22:43:32.912Z,6.32
2022-08-04T22:46:05.421Z,5.25
2022-08-04T22:48:34.692Z,3.78
2022-08-04T22:51:03.387Z,5.13
2022-08-04T22:53:31.395Z,4.57
2022-08-04T22:56:09.782Z,6.35
2022-08-04T22:58:40.298Z,5.38
2022-08-04T23:01:10.273Z,3.00
2022-08-04T23:03:39.064Z,5.18
2022-08-04T23:06:10.635Z,5.82
2022-08-04T23:08:43.335Z,4.45
2022-08-04T23:13:42.627Z,5.10
2022-08-04T23:16:14.713Z,7.70
2022-08-04T23:18:45.130Z,6.75
2022-08-04T23:21:15.979Z,6.85
2022-08-04T23:23:45.406Z,4.30
2022-08-04T23:26:27.852Z,3.30
2022-08-04T23:28:55.908Z,6.82
2022-08-04T23:31:25.332Z,6.50
2022-08-04T23:36:36.652Z,4.00
2022-08-04T23:39:06.453Z,7.75
2022-08-04T23:41:53.986Z,5.60
2022-08-04T23:44:25.360Z,9.90
2022-08-04T23:46:59.670Z,5.45
2022-08-04T23:49:43.258Z,5.57
2022-08-04T23:54:51.616Z,4.50
2022-08-04T23:57:20.830Z,8.38
2022-08-04T23:59:52.707Z,3.15
